sensor_id;sensor_type;location;lat;lon;timestamp;pressure;altitude;pressure_sealevel;temperature;humidity
3780;BME280;1905;52.482;9.802;2023-05-19T00:02:17;102263.13;;;11.65;56.17
3780;BME280;1905;52.482;9.802;2023-05-19T00:04:49;102266.66;;;11.64;55.79
3780;BME280;1905;52.482;9.802;2023-05-19T00:07:17;102264.94;;;11.63;55.44
3780;BME280;1905;52.482;9.802;2023-05-19T00:09:46;102258.81;;;11.61;55.89
3780;BME280;1905;52.482;9.802;2023-05-19T00:12:14;102266.91;;;11.55;56.24
3780;BME280;1905;52.482;9.802;2023-05-19T00:14:43;102262.50;;;11.54;56.49
3780;BME280;1905;52.482;9.802;2023-05-19T00:17:11;102263.41;;;11.53;56.04
3780;BME280;1905;52.482;9.802;2023-05-19T00:19:38;102256.50;;;11.46;56.34
3780;BME280;1905;52.482;9.802;2023-05-19T00:22:07;102257.41;;;11.45;56.21
3780;BME280;1905;52.482;9.802;2023-05-19T00:24:34;102260.09;;;11.43;55.87
3780;BME280;1905;52.482;9.802;2023-05-19T00:27:02;102263.69;;;11.41;56.90
3780;BME280;1905;52.482;9.802;2023-05-19T00:29:30;102266.34;;;11.39;56.25
3780;BME280;1905;52.482;9.802;2023-05-19T00:31:58;102256.69;;;11.36;56.24
3780;BME280;1905;52.482;9.802;2023-05-19T00:34:25;102258.50;;;11.34;56.20
3780;BME280;1905;52.482;9.802;2023-05-19T00:36:53;102259.50;;;11.29;56.49
3780;BME280;1905;52.482;9.802;2023-05-19T00:39:22;102245.47;;;11.25;56.31
3780;BME280;1905;52.482;9.802;2023-05-19T00:41:49;102248.13;;;11.25;56.24
3780;BME280;1905;52.482;9.802;2023-05-19T00:44:17;102248.13;;;11.25;56.51
3780;BME280;1905;52.482;9.802;2023-05-19T00:46:45;102248.22;;;11.21;56.89
3780;BME280;1905;52.482;9.802;2023-05-19T00:49:12;102247.41;;;11.19;57.17
3780;BME280;1905;52.482;9.802;2023-05-19T00:51:40;102253.69;;;11.13;56.62
3780;BME280;1905;52.482;9.802;2023-05-19T00:54:07;102253.69;;;11.13;57.15
3780;BME280;1905;52.482;9.802;2023-05-19T00:56:37;102247.56;;;11.11;57.06
3780;BME280;1905;52.482;9.802;2023-05-19T00:59:05;102249.41;;;11.06;56.82
3780;BME280;1905;52.482;9.802;2023-05-19T01:01:33;102248.56;;;11.04;57.27
3780;BME280;1905;52.482;9.802;2023-05-19T01:04:02;102244.22;;;11.02;56.77
3780;BME280;1905;52.482;9.802;2023-05-19T01:06:30;102249.56;;;10.99;57.37
3780;BME280;1905;52.482;9.802;2023-05-19T01:08:58;102246.97;;;10.97;57.10
3780;BME280;1905;52.482;9.802;2023-05-19T01:11:26;102244.34;;;10.96;57.42
3780;BME280;1905;52.482;9.802;2023-05-19T01:13:55;102247.03;;;10.94;57.76
3780;BME280;1905;52.482;9.802;2023-05-19T01:16:27;102245.31;;;10.92;57.04
3780;BME280;1905;52.482;9.802;2023-05-19T01:19:00;102242.72;;;10.89;57.43
3780;BME280;1905;52.482;9.802;2023-05-19T01:22:05;102241.84;;;10.88;57.02
3780;BME280;1905;52.482;9.802;2023-05-19T01:25:07;102250.69;;;10.87;57.76
3780;BME280;1905;52.482;9.802;2023-05-19T01:27:47;102244.59;;;10.82;57.67
3780;BME280;1905;52.482;9.802;2023-05-19T01:30:28;102245.59;;;10.76;58.09
3780;BME280;1905;52.482;9.802;2023-05-19T01:32:59;102247.41;;;10.76;57.24
3780;BME280;1905;52.482;9.802;2023-05-19T01:35:28;102240.34;;;10.75;57.85
3780;BME280;1905;52.482;9.802;2023-05-19T01:37:59;102241.25;;;10.74;57.38
3780;BME280;1905;52.482;9.802;2023-05-19T01:40:28;102240.41;;;10.72;57.13
3780;BME280;1905;52.482;9.802;2023-05-19T01:42:58;102240.41;;;10.72;57.36
3780;BME280;1905;52.482;9.802;2023-05-19T01:45:29;102238.66;;;10.71;57.15
3780;BME280;1905;52.482;9.802;2023-05-19T01:48:01;102247.44;;;10.73;57.62
3780;BME280;1905;52.482;9.802;2023-05-19T01:50:30;102250.09;;;10.73;56.85
3780;BME280;1905;52.482;9.802;2023-05-19T01:52:59;102244.88;;;10.68;57.89
3780;BME280;1905;52.482;9.802;2023-05-19T01:55:27;102249.38;;;10.65;57.27
3780;BME280;1905;52.482;9.802;2023-05-19T01:58:01;102247.56;;;10.67;57.87
3780;BME280;1905;52.482;9.802;2023-05-19T02:00:40;102241.44;;;10.63;57.73
3780;BME280;1905;52.482;9.802;2023-05-19T02:03:25;102246.84;;;10.59;58.26
3780;BME280;1905;52.482;9.802;2023-05-19T02:06:02;102246.75;;;10.63;57.23
3780;BME280;1905;52.482;9.802;2023-05-19T02:08:41;102252.91;;;10.64;57.65
3780;BME280;1905;52.482;9.802;2023-05-19T02:11:14;102242.38;;;10.61;57.47
3780;BME280;1905;52.482;9.802;2023-05-19T02:13:49;102240.72;;;10.57;58.06
3780;BME280;1905;52.482;9.802;2023-05-19T02:16:23;102235.50;;;10.54;57.94
3780;BME280;1905;52.482;9.802;2023-05-19T02:18:54;102244.34;;;10.50;57.20
3780;BME280;1905;52.482;9.802;2023-05-19T02:21:22;102237.34;;;10.49;58.40
3780;BME280;1905;52.482;9.802;2023-05-19T02:23:50;102235.59;;;10.46;57.92
3780;BME280;1905;52.482;9.802;2023-05-19T02:26:18;102238.25;;;10.46;57.81
3780;BME280;1905;52.482;9.802;2023-05-19T02:28:46;102240.97;;;10.42;57.63
3780;BME280;1905;52.482;9.802;2023-05-19T02:31:14;102243.63;;;10.42;57.99
3780;BME280;1905;52.482;9.802;2023-05-19T02:33:43;102237.59;;;10.34;58.95
3780;BME280;1905;52.482;9.802;2023-05-19T02:36:11;102237.56;;;10.37;58.22
3780;BME280;1905;52.482;9.802;2023-05-19T02:38:39;102236.72;;;10.35;58.22
3780;BME280;1905;52.482;9.802;2023-05-19T02:41:07;102235.78;;;10.36;58.62
3780;BME280;1905;52.482;9.802;2023-05-19T02:43:34;102234.19;;;10.29;58.52
3780;BME280;1905;52.482;9.802;2023-05-19T02:46:02;102235.00;;;10.31;58.53
3780;BME280;1905;52.482;9.802;2023-05-19T02:48:29;102239.50;;;10.26;58.62
3780;BME280;1905;52.482;9.802;2023-05-19T02:50:58;102229.00;;;10.23;58.30
3780;BME280;1905;52.482;9.802;2023-05-19T02:53:26;102237.84;;;10.22;58.63
3780;BME280;1905;52.482;9.802;2023-05-19T02:55:53;102227.34;;;10.17;58.95
3780;BME280;1905;52.482;9.802;2023-05-19T02:58:21;102232.69;;;10.12;59.09
3780;BME280;1905;52.482;9.802;2023-05-19T03:00:49;102230.06;;;10.09;58.28
3780;BME280;1905;52.482;9.802;2023-05-19T03:03:16;102233.63;;;10.07;59.08
3780;BME280;1905;52.482;9.802;2023-05-19T03:05:45;102236.38;;;10.01;59.23
3780;BME280;1905;52.482;9.802;2023-05-19T03:08:14;102235.50;;;10.00;58.79
3780;BME280;1905;52.482;9.802;2023-05-19T03:10:41;102227.75;;;9.90;59.93
3780;BME280;1905;52.482;9.802;2023-05-19T03:13:09;102231.31;;;9.87;59.11
3780;BME280;1905;52.482;9.802;2023-05-19T03:15:37;102233.06;;;9.88;59.97
3780;BME280;1905;52.482;9.802;2023-05-19T03:18:04;102224.34;;;9.83;59.64
3780;BME280;1905;52.482;9.802;2023-05-19T03:20:32;102229.78;;;9.74;60.58
3780;BME280;1905;52.482;9.802;2023-05-19T03:23:00;102227.97;;;9.76;60.20
3780;BME280;1905;52.482;9.802;2023-05-19T03:25:29;102226.34;;;9.69;59.77
3780;BME280;1905;52.482;9.802;2023-05-19T03:27:57;102227.25;;;9.65;59.90
3780;BME280;1905;52.482;9.802;2023-05-19T03:30:24;102228.22;;;9.61;59.96
3780;BME280;1905;52.482;9.802;2023-05-19T03:33:03;102228.25;;;9.58;60.49
3780;BME280;1905;52.482;9.802;2023-05-19T03:35:31;102233.56;;;9.55;59.88
3780;BME280;1905;52.482;9.802;2023-05-19T03:37:59;102230.94;;;9.55;60.79
3780;BME280;1905;52.482;9.802;2023-05-19T03:40:26;102226.66;;;9.48;59.87
3780;BME280;1905;52.482;9.802;2023-05-19T03:43:02;102231.09;;;9.44;60.34
3780;BME280;1905;52.482;9.802;2023-05-19T03:45:33;102224.97;;;9.41;60.20
3780;BME280;1905;52.482;9.802;2023-05-19T03:48:13;102223.25;;;9.40;59.94
3780;BME280;1905;52.482;9.802;2023-05-19T03:51:07;102227.66;;;9.38;60.11
3780;BME280;1905;52.482;9.802;2023-05-19T03:53:34;102226.84;;;9.34;60.74
3780;BME280;1905;52.482;9.802;2023-05-19T03:56:02;102227.72;;;9.33;60.98
3780;BME280;1905;52.482;9.802;2023-05-19T03:58:32;102232.16;;;9.30;60.77
3780;BME280;1905;52.482;9.802;2023-05-19T04:01:00;102225.22;;;9.26;61.45
3780;BME280;1905;52.482;9.802;2023-05-19T04:03:29;102222.53;;;9.27;60.80
3780;BME280;1905;52.482;9.802;2023-05-19T04:05:56;102235.75;;;9.24;60.99
3780;BME280;1905;52.482;9.802;2023-05-19T04:08:24;102225.25;;;9.23;61.63
3780;BME280;1905;52.482;9.802;2023-05-19T04:10:52;102234.03;;;9.22;60.88
3780;BME280;1905;52.482;9.802;2023-05-19T04:13:20;102228.75;;;9.22;61.00
3780;BME280;1905;52.482;9.802;2023-05-19T04:15:49;102231.44;;;9.19;60.59
3780;BME280;1905;52.482;9.802;2023-05-19T04:18:16;102234.06;;;9.19;61.02
3780;BME280;1905;52.482;9.802;2023-05-19T04:20:44;102224.44;;;9.18;60.80
3780;BME280;1905;52.482;9.802;2023-05-19T04:23:12;102239.44;;;9.13;61.26
3780;BME280;1905;52.482;9.802;2023-05-19T04:25:39;102237.66;;;9.15;60.81
3780;BME280;1905;52.482;9.802;2023-05-19T04:28:07;102235.00;;;9.13;61.79
3780;BME280;1905;52.482;9.802;2023-05-19T04:30:35;102238.53;;;9.14;60.72
3780;BME280;1905;52.482;9.802;2023-05-19T04:33:05;102246.44;;;9.14;60.73
3780;BME280;1905;52.482;9.802;2023-05-19T04:35:33;102244.75;;;9.10;61.64
3780;BME280;1905;52.482;9.802;2023-05-19T04:38:02;102246.44;;;9.14;61.38
3780;BME280;1905;52.482;9.802;2023-05-19T04:40:31;102247.34;;;9.13;60.90
3780;BME280;1905;52.482;9.802;2023-05-19T04:42:59;102255.28;;;9.10;61.87
3780;BME280;1905;52.482;9.802;2023-05-19T04:45:28;102248.22;;;9.12;61.34
3780;BME280;1905;52.482;9.802;2023-05-19T04:47:59;102243.84;;;9.12;61.60
3780;BME280;1905;52.482;9.802;2023-05-19T04:50:28;102242.97;;;9.12;61.83
3780;BME280;1905;52.482;9.802;2023-05-19T04:52:58;102244.69;;;9.14;61.11
3780;BME280;1905;52.482;9.802;2023-05-19T04:55:26;102242.91;;;9.15;61.24
3780;BME280;1905;52.482;9.802;2023-05-19T04:57:54;102242.91;;;9.15;61.27
3780;BME280;1905;52.482;9.802;2023-05-19T05:00:22;102247.28;;;9.17;60.81
3780;BME280;1905;52.482;9.802;2023-05-19T05:02:57;102243.75;;;9.17;60.89
3780;BME280;1905;52.482;9.802;2023-05-19T05:05:29;102242.97;;;9.12;61.48
3780;BME280;1905;52.482;9.802;2023-05-19T05:07:57;102244.56;;;9.22;61.08
3780;BME280;1905;52.482;9.802;2023-05-19T05:10:27;102250.75;;;9.19;60.82
3780;BME280;1905;52.482;9.802;2023-05-19T05:12:56;102239.25;;;9.25;61.56
3780;BME280;1905;52.482;9.802;2023-05-19T05:15:24;102246.28;;;9.26;61.03
3780;BME280;1905;52.482;9.802;2023-05-19T05:17:56;102239.25;;;9.25;60.96
3780;BME280;1905;52.482;9.802;2023-05-19T05:20:25;102241.00;;;9.29;60.12
3780;BME280;1905;52.482;9.802;2023-05-19T05:22:54;102241.00;;;9.29;60.83
3780;BME280;1905;52.482;9.802;2023-05-19T05:25:25;102238.34;;;9.27;60.52
3780;BME280;1905;52.482;9.802;2023-05-19T05:27:52;102237.41;;;9.33;59.88
3780;BME280;1905;52.482;9.802;2023-05-19T05:30:21;102240.03;;;9.34;60.37
3780;BME280;1905;52.482;9.802;2023-05-19T05:32:49;102240.84;;;9.38;60.61
3780;BME280;1905;52.482;9.802;2023-05-19T05:35:31;102239.97;;;9.39;61.03
3780;BME280;1905;52.482;9.802;2023-05-19T05:38:01;102235.53;;;9.41;60.30
3780;BME280;1905;52.482;9.802;2023-05-19T05:40:31;102235.50;;;9.44;60.49
3780;BME280;1905;52.482;9.802;2023-05-19T05:42:58;102232.84;;;9.44;59.94
3780;BME280;1905;52.482;9.802;2023-05-19T05:45:30;102236.34;;;9.46;59.99
3780;BME280;1905;52.482;9.802;2023-05-19T05:47:59;102229.25;;;9.49;60.26
3780;BME280;1905;52.482;9.802;2023-05-19T05:50:30;102231.94;;;9.48;60.38
3780;BME280;1905;52.482;9.802;2023-05-19T05:53:01;102235.41;;;9.50;60.27
3780;BME280;1905;52.482;9.802;2023-05-19T05:55:33;102231.88;;;9.51;60.33
3780;BME280;1905;52.482;9.802;2023-05-19T05:58:03;102244.13;;;9.55;62.65
3780;BME280;1905;52.482;9.802;2023-05-19T06:00:30;102237.00;;;9.60;62.94
3780;BME280;1905;52.482;9.802;2023-05-19T06:02:59;102239.56;;;9.66;64.52
3780;BME280;1905;52.482;9.802;2023-05-19T06:05:29;102239.56;;;9.66;65.75
3780;BME280;1905;52.482;9.802;2023-05-19T06:07:57;102245.63;;;9.71;64.69
3780;BME280;1905;52.482;9.802;2023-05-19T06:10:28;102239.41;;;9.77;65.80
3780;BME280;1905;52.482;9.802;2023-05-19T06:12:57;102246.38;;;9.81;65.45
3780;BME280;1905;52.482;9.802;2023-05-19T06:15:25;102244.50;;;9.87;66.28
3780;BME280;1905;52.482;9.802;2023-05-19T06:17:58;102241.78;;;9.93;65.85
3780;BME280;1905;52.482;9.802;2023-05-19T06:20:26;102246.09;;;9.99;66.61
3780;BME280;1905;52.482;9.802;2023-05-19T06:22:55;102245.13;;;10.04;67.15
3780;BME280;1905;52.482;9.802;2023-05-19T06:25:25;102234.47;;;10.10;65.84
3780;BME280;1905;52.482;9.802;2023-05-19T06:27:55;102236.13;;;10.18;64.74
3780;BME280;1905;52.482;9.802;2023-05-19T06:30:23;102230.72;;;10.25;67.01
3780;BME280;1905;52.482;9.802;2023-05-19T06:33:19;102235.94;;;10.30;66.58
3780;BME280;1905;52.482;9.802;2023-05-19T06:35:47;102230.50;;;10.36;67.27
3780;BME280;1905;52.482;9.802;2023-05-19T06:38:15;102238.22;;;10.48;68.63
3780;BME280;1905;52.482;9.802;2023-05-19T06:40:43;102239.91;;;10.52;67.66
3780;BME280;1905;52.482;9.802;2023-05-19T06:43:12;102237.03;;;10.64;69.45
3780;BME280;1905;52.482;9.802;2023-05-19T06:45:57;102237.00;;;10.67;67.93
3780;BME280;1905;52.482;9.802;2023-05-19T06:48:25;102239.47;;;10.74;66.59
3780;BME280;1905;52.482;9.802;2023-05-19T06:50:52;102236.63;;;10.85;66.46
3780;BME280;1905;52.482;9.802;2023-05-19T06:53:20;102233.03;;;10.89;64.96
3780;BME280;1905;52.482;9.802;2023-05-19T06:55:50;102232.78;;;11.01;68.00
3780;BME280;1905;52.482;9.802;2023-05-19T06:58:28;102235.28;;;11.07;65.89
3780;BME280;1905;52.482;9.802;2023-05-19T07:00:57;102232.53;;;11.13;65.83
3780;BME280;1905;52.482;9.802;2023-05-19T07:03:29;102236.72;;;11.23;65.83
3780;BME280;1905;52.482;9.802;2023-05-19T07:05:58;102239.16;;;11.32;67.60
3780;BME280;1905;52.482;9.802;2023-05-19T07:08:26;102239.09;;;11.35;66.21
3780;BME280;1905;52.482;9.802;2023-05-19T07:10:56;102234.53;;;11.44;64.52
3780;BME280;1905;52.482;9.802;2023-05-19T07:13:23;102239.56;;;11.53;64.06
3780;BME280;1905;52.482;9.802;2023-05-19T07:15:55;102232.31;;;11.62;66.44
3780;BME280;1905;52.482;9.802;2023-05-19T07:18:24;102237.41;;;11.71;64.32
3780;BME280;1905;52.482;9.802;2023-05-19T07:20:52;102229.31;;;11.79;64.40
3780;BME280;1905;52.482;9.802;2023-05-19T07:23:20;102229.13;;;11.86;63.86
3780;BME280;1905;52.482;9.802;2023-05-19T07:25:48;102221.81;;;11.96;64.35
3780;BME280;1905;52.482;9.802;2023-05-19T07:28:16;102222.47;;;12.06;65.40
3780;BME280;1905;52.482;9.802;2023-05-19T07:30:43;102230.16;;;12.16;64.24
3780;BME280;1905;52.482;9.802;2023-05-19T07:33:12;102214.94;;;12.24;64.21
3780;BME280;1905;52.482;9.802;2023-05-19T07:35:40;102214.72;;;12.32;62.73
3780;BME280;1905;52.482;9.802;2023-05-19T07:38:08;102217.97;;;12.43;64.73
3780;BME280;1905;52.482;9.802;2023-05-19T07:40:35;102213.19;;;12.55;62.77
3780;BME280;1905;52.482;9.802;2023-05-19T07:43:03;102211.03;;;12.70;63.21
3780;BME280;1905;52.482;9.802;2023-05-19T07:45:30;102208.06;;;12.80;63.11
3780;BME280;1905;52.482;9.802;2023-05-19T07:47:58;102208.69;;;12.90;63.25
3780;BME280;1905;52.482;9.802;2023-05-19T07:50:27;102212.72;;;13.03;62.85
3780;BME280;1905;52.482;9.802;2023-05-19T07:52:55;102206.09;;;13.19;62.39
3780;BME280;1905;52.482;9.802;2023-05-19T07:55:23;102207.38;;;13.35;61.97
3780;BME280;1905;52.482;9.802;2023-05-19T07:57:50;102205.16;;;13.49;61.28
3780;BME280;1905;52.482;9.802;2023-05-19T08:00:18;102208.38;;;13.59;60.01
3780;BME280;1905;52.482;9.802;2023-05-19T08:02:46;102207.75;;;13.79;60.41
3780;BME280;1905;52.482;9.802;2023-05-19T08:05:13;102202.06;;;13.91;59.57
3780;BME280;1905;52.482;9.802;2023-05-19T08:07:42;102200.44;;;14.11;59.90
3780;BME280;1905;52.482;9.802;2023-05-19T08:10:10;102202.63;;;14.25;59.87
3780;BME280;1905;52.482;9.802;2023-05-19T08:12:37;102202.25;;;14.37;59.71
3780;BME280;1905;52.482;9.802;2023-05-19T08:15:06;102206.84;;;14.57;59.73
3780;BME280;1905;52.482;9.802;2023-05-19T08:17:34;102192.91;;;14.75;59.55
3780;BME280;1905;52.482;9.802;2023-05-19T08:20:01;102198.53;;;14.90;58.10
3780;BME280;1905;52.482;9.802;2023-05-19T08:22:31;102197.72;;;15.12;58.64
3780;BME280;1905;52.482;9.802;2023-05-19T08:25:00;102190.88;;;15.28;58.35
3780;BME280;1905;52.482;9.802;2023-05-19T08:27:29;102189.34;;;15.44;57.29
3780;BME280;1905;52.482;9.802;2023-05-19T08:29:56;102192.25;;;15.61;57.88
3780;BME280;1905;52.482;9.802;2023-05-19T08:32:24;102186.16;;;15.79;57.33
3780;BME280;1905;52.482;9.802;2023-05-19T08:34:52;102185.13;;;16.03;57.31
3780;BME280;1905;52.482;9.802;2023-05-19T08:37:19;102179.94;;;16.21;58.11
3780;BME280;1905;52.482;9.802;2023-05-19T08:39:47;102177.34;;;16.39;58.22
3780;BME280;1905;52.482;9.802;2023-05-19T08:42:16;102182.94;;;16.55;56.66
3780;BME280;1905;52.482;9.802;2023-05-19T08:44:43;102175.38;;;16.64;55.31
3780;BME280;1905;52.482;9.802;2023-05-19T08:47:11;102169.16;;;16.84;56.29
3780;BME280;1905;52.482;9.802;2023-05-19T08:49:43;102171.75;;;17.04;56.08
3780;BME280;1905;52.482;9.802;2023-05-19T08:52:18;102173.56;;;17.22;56.55
3780;BME280;1905;52.482;9.802;2023-05-19T08:54:52;102163.16;;;17.35;54.08
3780;BME280;1905;52.482;9.802;2023-05-19T08:57:23;102163.16;;;17.54;55.57
3780;BME280;1905;52.482;9.802;2023-05-19T08:59:53;102160.91;;;17.63;53.43
3780;BME280;1905;52.482;9.802;2023-05-19T09:02:21;102167.53;;;17.73;53.94
3780;BME280;1905;52.482;9.802;2023-05-19T09:04:49;102156.16;;;17.87;51.94
3780;BME280;1905;52.482;9.802;2023-05-19T09:07:17;102155.50;;;17.99;51.66
3780;BME280;1905;52.482;9.802;2023-05-19T09:09:45;102152.38;;;18.08;51.97
3780;BME280;1905;52.482;9.802;2023-05-19T09:12:13;102156.31;;;18.18;52.47
3780;BME280;1905;52.482;9.802;2023-05-19T09:14:42;102162.13;;;18.26;50.82
3780;BME280;1905;52.482;9.802;2023-05-19T09:17:10;102155.44;;;18.35;51.48
3780;BME280;1905;52.482;9.802;2023-05-19T09:19:41;102147.72;;;18.46;51.48
3780;BME280;1905;52.482;9.802;2023-05-19T09:22:10;102143.81;;;18.53;51.25
3780;BME280;1905;52.482;9.802;2023-05-19T09:24:37;102150.19;;;18.51;49.74
3780;BME280;1905;52.482;9.802;2023-05-19T09:27:05;102145.75;;;18.67;51.17
3780;BME280;1905;52.482;9.802;2023-05-19T09:29:34;102143.91;;;18.67;50.34
3780;BME280;1905;52.482;9.802;2023-05-19T09:32:03;102139.00;;;18.75;50.91
3780;BME280;1905;52.482;9.802;2023-05-19T09:34:31;102144.94;;;18.65;48.90
3780;BME280;1905;52.482;9.802;2023-05-19T09:36:59;102143.34;;;18.78;49.71
3780;BME280;1905;52.482;9.802;2023-05-19T09:39:26;102137.66;;;18.84;49.80
3780;BME280;1905;52.482;9.802;2023-05-19T09:41:54;102138.78;;;18.80;49.65
3780;BME280;1905;52.482;9.802;2023-05-19T09:44:24;102135.94;;;18.83;49.11
3780;BME280;1905;52.482;9.802;2023-05-19T09:46:56;102127.28;;;18.78;48.35
3780;BME280;1905;52.482;9.802;2023-05-19T09:49:27;102129.16;;;18.76;48.42
3780;BME280;1905;52.482;9.802;2023-05-19T09:51:57;102127.28;;;18.78;49.18
3780;BME280;1905;52.482;9.802;2023-05-19T09:54:25;102121.06;;;18.77;49.48
3780;BME280;1905;52.482;9.802;2023-05-19T09:56:57;102121.22;;;18.74;49.69
3780;BME280;1905;52.482;9.802;2023-05-19T09:59:26;102124.84;;;18.73;49.26
3780;BME280;1905;52.482;9.802;2023-05-19T10:01:58;102114.56;;;18.66;49.14
3780;BME280;1905;52.482;9.802;2023-05-19T10:04:29;102119.16;;;18.64;47.83
3780;BME280;1905;52.482;9.802;2023-05-19T10:06:58;102113.69;;;18.65;48.29
3780;BME280;1905;52.482;9.802;2023-05-19T10:09:26;102113.78;;;18.64;48.28
3780;BME280;1905;52.482;9.802;2023-05-19T10:11:56;102115.50;;;18.65;48.73
3780;BME280;1905;52.482;9.802;2023-05-19T10:14:24;102104.97;;;18.62;48.66
3780;BME280;1905;52.482;9.802;2023-05-19T10:16:53;102105.75;;;18.64;48.25
3780;BME280;1905;52.482;9.802;2023-05-19T10:19:22;102100.72;;;18.58;47.51
3780;BME280;1905;52.482;9.802;2023-05-19T10:21:51;102105.31;;;18.56;46.09
3780;BME280;1905;52.482;9.802;2023-05-19T10:24:19;102105.31;;;18.56;46.94
3780;BME280;1905;52.482;9.802;2023-05-19T10:26:50;102101.50;;;18.60;48.83
3780;BME280;1905;52.482;9.802;2023-05-19T10:29:21;102091.69;;;18.60;48.69
3780;BME280;1905;52.482;9.802;2023-05-19T10:31:52;102094.97;;;18.65;48.80
3780;BME280;1905;52.482;9.802;2023-05-19T10:34:35;102086.66;;;18.70;49.18
3780;BME280;1905;52.482;9.802;2023-05-19T10:37:23;102088.75;;;18.65;47.80
3780;BME280;1905;52.482;9.802;2023-05-19T10:39:55;102080.47;;;18.69;48.74
3780;BME280;1905;52.482;9.802;2023-05-19T10:42:30;102076.66;;;18.73;48.32
3780;BME280;1905;52.482;9.802;2023-05-19T10:45:05;102078.31;;;18.76;49.53
3780;BME280;1905;52.482;9.802;2023-05-19T10:47:36;102083.50;;;18.79;48.11
3780;BME280;1905;52.482;9.802;2023-05-19T10:50:04;102079.56;;;18.86;49.14
3780;BME280;1905;52.482;9.802;2023-05-19T10:52:36;102070.38;;;18.90;48.22
3780;BME280;1905;52.482;9.802;2023-05-19T10:55:06;102067.44;;;18.94;47.72
3780;BME280;1905;52.482;9.802;2023-05-19T10:57:35;102064.50;;;18.99;48.10
3780;BME280;1905;52.482;9.802;2023-05-19T11:00:25;102058.34;;;18.97;48.42
3780;BME280;1905;52.482;9.802;2023-05-19T11:02:52;102056.97;;;19.06;48.78
3780;BME280;1905;52.482;9.802;2023-05-19T11:05:27;102054.41;;;19.04;47.10
3780;BME280;1905;52.482;9.802;2023-05-19T11:07:58;102051.56;;;19.07;47.00
3780;BME280;1905;52.482;9.802;2023-05-19T11:10:28;102049.38;;;19.14;47.57
3780;BME280;1905;52.482;9.802;2023-05-19T11:12:56;102050.84;;;19.19;47.97
3780;BME280;1905;52.482;9.802;2023-05-19T11:15:25;102061.19;;;19.25;47.54
3780;BME280;1905;52.482;9.802;2023-05-19T11:17:54;102054.09;;;19.24;46.77
3780;BME280;1905;52.482;9.802;2023-05-19T11:20:23;102063.72;;;19.28;46.69
3780;BME280;1905;52.482;9.802;2023-05-19T11:23:05;102064.06;;;19.38;45.77
3780;BME280;1905;52.482;9.802;2023-05-19T11:25:43;102063.03;;;19.40;45.04
3780;BME280;1905;52.482;9.802;2023-05-19T11:28:11;102054.28;;;19.52;47.20
3780;BME280;1905;52.482;9.802;2023-05-19T11:30:41;102057.28;;;19.62;46.19
3780;BME280;1905;52.482;9.802;2023-05-19T11:33:11;102047.56;;;19.59;44.17
3780;BME280;1905;52.482;9.802;2023-05-19T11:35:39;102045.31;;;19.68;44.97
3780;BME280;1905;52.482;9.802;2023-05-19T11:38:09;102035.59;;;19.81;46.58
3780;BME280;1905;52.482;9.802;2023-05-19T11:40:37;102040.19;;;19.93;45.68
3780;BME280;1905;52.482;9.802;2023-05-19T11:43:05;102041.16;;;20.06;46.31
3780;BME280;1905;52.482;9.802;2023-05-19T11:45:33;102039.75;;;20.14;46.82
3780;BME280;1905;52.482;9.802;2023-05-19T11:48:01;102040.97;;;20.25;47.52
3780;BME280;1905;52.482;9.802;2023-05-19T11:50:29;102033.75;;;20.39;47.44
3780;BME280;1905;52.482;9.802;2023-05-19T11:52:59;102035.66;;;20.51;48.27
3780;BME280;1905;52.482;9.802;2023-05-19T11:55:29;102035.56;;;20.53;47.61
3780;BME280;1905;52.482;9.802;2023-05-19T11:57:57;102037.38;;;20.66;48.13
3780;BME280;1905;52.482;9.802;2023-05-19T12:00:29;102035.03;;;20.74;48.33
3780;BME280;1905;52.482;9.802;2023-05-19T12:02:58;102033.72;;;20.82;48.50
3780;BME280;1905;52.482;9.802;2023-05-19T12:05:26;102036.97;;;20.87;48.32
3780;BME280;1905;52.482;9.802;2023-05-19T12:07:54;102034.91;;;20.90;47.95
3780;BME280;1905;52.482;9.802;2023-05-19T12:10:22;102035.78;;;20.91;43.99
3780;BME280;1905;52.482;9.802;2023-05-19T12:12:52;102032.69;;;20.97;47.37
3780;BME280;1905;52.482;9.802;2023-05-19T12:15:21;102038.63;;;21.02;46.50
3780;BME280;1905;52.482;9.802;2023-05-19T12:17:48;102032.09;;;21.06;46.87
3780;BME280;1905;52.482;9.802;2023-05-19T12:20:17;102029.25;;;21.09;46.96
3780;BME280;1905;52.482;9.802;2023-05-19T12:22:45;102022.63;;;21.14;46.57
3780;BME280;1905;52.482;9.802;2023-05-19T12:25:14;102021.31;;;21.20;47.41
3780;BME280;1905;52.482;9.802;2023-05-19T12:27:42;102028.03;;;21.27;47.43
3780;BME280;1905;52.482;9.802;2023-05-19T12:30:12;102020.63;;;21.30;47.77
3780;BME280;1905;52.482;9.802;2023-05-19T12:32:39;102023.19;;;21.32;46.32
3780;BME280;1905;52.482;9.802;2023-05-19T12:35:08;102014.53;;;21.41;46.73
3780;BME280;1905;52.482;9.802;2023-05-19T12:37:39;102007.00;;;21.46;46.98
3780;BME280;1905;52.482;9.802;2023-05-19T12:40:08;102002.50;;;21.47;46.90
3780;BME280;1905;52.482;9.802;2023-05-19T12:42:36;102002.84;;;21.55;46.57
3780;BME280;1905;52.482;9.802;2023-05-19T12:45:04;102005.53;;;21.55;45.59
3780;BME280;1905;52.482;9.802;2023-05-19T12:47:34;102003.66;;;21.55;45.42
3780;BME280;1905;52.482;9.802;2023-05-19T12:50:03;101998.66;;;21.63;46.48
3780;BME280;1905;52.482;9.802;2023-05-19T12:52:32;101998.41;;;21.66;46.21
3780;BME280;1905;52.482;9.802;2023-05-19T12:55:03;101993.03;;;21.66;45.00
3780;BME280;1905;52.482;9.802;2023-05-19T12:57:33;101990.34;;;21.66;44.92
3780;BME280;1905;52.482;9.802;2023-05-19T13:00:04;101994.34;;;21.73;45.80
3780;BME280;1905;52.482;9.802;2023-05-19T13:02:34;102002.97;;;21.78;46.15
3780;BME280;1905;52.482;9.802;2023-05-19T13:05:02;101998.88;;;21.85;46.01
3780;BME280;1905;52.482;9.802;2023-05-19T13:07:30;102002.13;;;21.90;45.62
3780;BME280;1905;52.482;9.802;2023-05-19T13:09:58;101991.06;;;21.95;45.99
3780;BME280;1905;52.482;9.802;2023-05-19T13:12:25;101989.66;;;22.02;45.39
3780;BME280;1905;52.482;9.802;2023-05-19T13:14:53;101984.47;;;21.99;45.38
3780;BME280;1905;52.482;9.802;2023-05-19T13:17:21;101988.56;;;22.05;44.59
3780;BME280;1905;52.482;9.802;2023-05-19T13:19:50;101983.50;;;22.13;45.25
3780;BME280;1905;52.482;9.802;2023-05-19T13:22:17;101973.06;;;22.21;45.16
3780;BME280;1905;52.482;9.802;2023-05-19T13:24:45;101975.31;;;22.27;44.10
3780;BME280;1905;52.482;9.802;2023-05-19T13:27:13;101974.44;;;22.39;44.94